CheckWX is a tool to help pilots better visualize weather data.  It is not intended as a substitute for an official pre-flight weather briefing.

04:43:11 UTC

WBKS TAF
Sandakan Airport
Sandakan, Malaysia
TAF WBKS 222300Z 2300/2400 06008KT 9999 FEW016 TEMPO 2300/2302 4000 RA FEW012 FEW016CB SCT030

Mar-23@
00:00 UTC

Mar-23 @ 00:00 UTC

Mar-24@
00:00 UTC

Mar-24 @ 00:00 UTC

TAF WBKS 222300Z 2300/2400 06008KT 9999 FEW016
Wind
  • 060° at 8 KTS
Cloud Levels
  • Few at 1,600' AGL

Mar-23@
00:00 UTC

Mar-23 @ 00:00 UTC

Mar-23@
02:00 UTC

Mar-23 @ 02:00 UTC

TEMPO 2300/2302 4000 RA FEW012 FEW016CB SCT030

Expired

Conditions
Rain
Cloud Levels
  • Few at 1,200' AGL
  • Few at 1,600' AGL
  • Scattered at 3,000' AGL